sensor_id;sensor_type;location;lat;lon;timestamp;temperature;humidity
19799;DHT22;10059;59.850;10.454;2022-10-16T00:00:48;7.50;99.90
19799;DHT22;10059;59.850;10.454;2022-10-16T00:03:15;7.70;99.90
19799;DHT22;10059;59.850;10.454;2022-10-16T00:05:43;7.70;99.90
19799;DHT22;10059;59.850;10.454;2022-10-16T00:08:11;7.60;99.90
19799;DHT22;10059;59.850;10.454;2022-10-16T00:10:39;7.70;99.90
19799;DHT22;10059;59.850;10.454;2022-10-16T00:13:06;7.60;99.90
19799;DHT22;10059;59.850;10.454;2022-10-16T00:15:36;7.60;99.90
19799;DHT22;10059;59.850;10.454;2022-10-16T00:18:05;7.60;99.90
19799;DHT22;10059;59.850;10.454;2022-10-16T00:20:34;7.60;99.90
19799;DHT22;10059;59.850;10.454;2022-10-16T00:23:02;7.60;99.90
19799;DHT22;10059;59.850;10.454;2022-10-16T00:25:30;7.60;99.90
19799;DHT22;10059;59.850;10.454;2022-10-16T00:27:58;7.50;99.90
19799;DHT22;10059;59.850;10.454;2022-10-16T00:30:25;7.40;99.90
19799;DHT22;10059;59.850;10.454;2022-10-16T00:32:54;7.30;99.90
19799;DHT22;10059;59.850;10.454;2022-10-16T00:35:21;7.30;99.90
19799;DHT22;10059;59.850;10.454;2022-10-16T00:37:49;7.30;99.90
19799;DHT22;10059;59.850;10.454;2022-10-16T00:40:16;7.20;99.90
19799;DHT22;10059;59.850;10.454;2022-10-16T00:42:43;7.20;99.90
19799;DHT22;10059;59.850;10.454;2022-10-16T00:45:11;7.10;99.90
19799;DHT22;10059;59.850;10.454;2022-10-16T00:47:40;7.20;99.90
19799;DHT22;10059;59.850;10.454;2022-10-16T00:50:12;7.10;99.90
19799;DHT22;10059;59.850;10.454;2022-10-16T00:52:44;7.00;99.90
19799;DHT22;10059;59.850;10.454;2022-10-16T00:55:13;7.10;99.90
19799;DHT22;10059;59.850;10.454;2022-10-16T00:57:41;7.20;99.90
19799;DHT22;10059;59.850;10.454;2022-10-16T01:00:12;7.30;99.90
19799;DHT22;10059;59.850;10.454;2022-10-16T01:02:40;7.30;99.90
19799;DHT22;10059;59.850;10.454;2022-10-16T01:05:09;7.30;99.90
19799;DHT22;10059;59.850;10.454;2022-10-16T01:07:41;7.30;99.90
19799;DHT22;10059;59.850;10.454;2022-10-16T01:10:17;7.30;99.90
19799;DHT22;10059;59.850;10.454;2022-10-16T01:12:53;7.20;99.90
19799;DHT22;10059;59.850;10.454;2022-10-16T01:15:26;7.10;99.90
19799;DHT22;10059;59.850;10.454;2022-10-16T01:17:59;7.10;99.90
19799;DHT22;10059;59.850;10.454;2022-10-16T01:20:31;7.10;99.90
19799;DHT22;10059;59.850;10.454;2022-10-16T01:23:09;7.10;99.90
19799;DHT22;10059;59.850;10.454;2022-10-16T01:25:53;7.10;99.90
19799;DHT22;10059;59.850;10.454;2022-10-16T01:28:29;7.10;99.90
19799;DHT22;10059;59.850;10.454;2022-10-16T01:30:59;7.00;99.90
19799;DHT22;10059;59.850;10.454;2022-10-16T01:33:32;7.10;99.90
19799;DHT22;10059;59.850;10.454;2022-10-16T01:36:06;7.00;99.90
19799;DHT22;10059;59.850;10.454;2022-10-16T01:38:37;6.90;99.90
19799;DHT22;10059;59.850;10.454;2022-10-16T01:41:08;6.80;99.90
19799;DHT22;10059;59.850;10.454;2022-10-16T01:43:40;6.80;99.90
19799;DHT22;10059;59.850;10.454;2022-10-16T01:46:08;6.70;99.90
19799;DHT22;10059;59.850;10.454;2022-10-16T01:48:35;6.70;99.90
19799;DHT22;10059;59.850;10.454;2022-10-16T01:51:06;6.60;99.90
19799;DHT22;10059;59.850;10.454;2022-10-16T01:53:34;6.60;99.90
19799;DHT22;10059;59.850;10.454;2022-10-16T01:56:04;6.30;99.90
19799;DHT22;10059;59.850;10.454;2022-10-16T01:58:35;6.20;99.90
19799;DHT22;10059;59.850;10.454;2022-10-16T02:01:08;6.10;99.90
19799;DHT22;10059;59.850;10.454;2022-10-16T02:03:38;6.10;99.90
19799;DHT22;10059;59.850;10.454;2022-10-16T02:06:07;6.00;99.90
19799;DHT22;10059;59.850;10.454;2022-10-16T02:08:35;6.10;99.90
19799;DHT22;10059;59.850;10.454;2022-10-16T02:11:03;6.20;99.90
19799;DHT22;10059;59.850;10.454;2022-10-16T02:13:34;6.30;99.90
19799;DHT22;10059;59.850;10.454;2022-10-16T02:16:02;6.30;99.90
19799;DHT22;10059;59.850;10.454;2022-10-16T02:18:31;5.90;99.90
19799;DHT22;10059;59.850;10.454;2022-10-16T02:21:01;6.00;99.90
19799;DHT22;10059;59.850;10.454;2022-10-16T02:23:36;5.70;99.90
19799;DHT22;10059;59.850;10.454;2022-10-16T02:26:07;5.50;99.90
19799;DHT22;10059;59.850;10.454;2022-10-16T02:28:39;5.40;99.90
19799;DHT22;10059;59.850;10.454;2022-10-16T02:31:10;5.20;99.90
19799;DHT22;10059;59.850;10.454;2022-10-16T02:33:40;5.10;99.90
19799;DHT22;10059;59.850;10.454;2022-10-16T02:36:09;5.00;99.90
19799;DHT22;10059;59.850;10.454;2022-10-16T02:38:38;5.00;99.90
19799;DHT22;10059;59.850;10.454;2022-10-16T02:41:06;5.10;99.90
19799;DHT22;10059;59.850;10.454;2022-10-16T02:43:33;5.00;99.90
19799;DHT22;10059;59.850;10.454;2022-10-16T02:46:00;4.90;99.90
19799;DHT22;10059;59.850;10.454;2022-10-16T02:48:28;5.00;99.90
19799;DHT22;10059;59.850;10.454;2022-10-16T02:50:56;4.90;99.90
19799;DHT22;10059;59.850;10.454;2022-10-16T02:53:23;4.90;99.90
19799;DHT22;10059;59.850;10.454;2022-10-16T02:55:50;4.80;99.90
19799;DHT22;10059;59.850;10.454;2022-10-16T02:58:17;4.70;99.90
19799;DHT22;10059;59.850;10.454;2022-10-16T03:00:44;4.60;99.90
19799;DHT22;10059;59.850;10.454;2022-10-16T03:03:11;4.50;99.90
19799;DHT22;10059;59.850;10.454;2022-10-16T03:05:38;4.50;99.90
19799;DHT22;10059;59.850;10.454;2022-10-16T03:08:07;4.60;99.90
19799;DHT22;10059;59.850;10.454;2022-10-16T03:10:33;4.70;99.90
19799;DHT22;10059;59.850;10.454;2022-10-16T03:13:00;4.80;99.90
19799;DHT22;10059;59.850;10.454;2022-10-16T03:15:28;4.80;99.90
19799;DHT22;10059;59.850;10.454;2022-10-16T03:17:56;4.80;99.90
19799;DHT22;10059;59.850;10.454;2022-10-16T03:20:24;4.80;99.90
19799;DHT22;10059;59.850;10.454;2022-10-16T03:22:51;4.90;99.90
19799;DHT22;10059;59.850;10.454;2022-10-16T03:25:19;5.00;99.90
19799;DHT22;10059;59.850;10.454;2022-10-16T03:27:49;4.90;99.90
19799;DHT22;10059;59.850;10.454;2022-10-16T03:30:16;4.90;99.90
19799;DHT22;10059;59.850;10.454;2022-10-16T03:32:44;4.90;99.90
19799;DHT22;10059;59.850;10.454;2022-10-16T03:35:11;4.90;99.90
19799;DHT22;10059;59.850;10.454;2022-10-16T03:37:38;5.00;99.90
19799;DHT22;10059;59.850;10.454;2022-10-16T03:40:06;5.00;99.90
19799;DHT22;10059;59.850;10.454;2022-10-16T03:42:34;5.00;99.90
19799;DHT22;10059;59.850;10.454;2022-10-16T03:45:01;5.00;99.90
19799;DHT22;10059;59.850;10.454;2022-10-16T03:47:28;5.10;99.90
19799;DHT22;10059;59.850;10.454;2022-10-16T03:49:55;5.20;99.90
19799;DHT22;10059;59.850;10.454;2022-10-16T03:52:23;5.30;99.90
19799;DHT22;10059;59.850;10.454;2022-10-16T03:54:50;5.30;99.90
19799;DHT22;10059;59.850;10.454;2022-10-16T03:57:17;5.20;99.90
19799;DHT22;10059;59.850;10.454;2022-10-16T03:59:45;5.20;99.90
19799;DHT22;10059;59.850;10.454;2022-10-16T04:02:13;5.20;99.90
19799;DHT22;10059;59.850;10.454;2022-10-16T04:04:40;5.20;99.90
19799;DHT22;10059;59.850;10.454;2022-10-16T04:07:06;5.30;99.90
19799;DHT22;10059;59.850;10.454;2022-10-16T04:09:33;5.40;99.90
19799;DHT22;10059;59.850;10.454;2022-10-16T04:12:00;5.50;99.90
19799;DHT22;10059;59.850;10.454;2022-10-16T04:14:27;5.50;99.90
19799;DHT22;10059;59.850;10.454;2022-10-16T04:16:56;5.60;99.90
19799;DHT22;10059;59.850;10.454;2022-10-16T04:19:23;5.40;99.90
19799;DHT22;10059;59.850;10.454;2022-10-16T04:21:50;5.40;99.90
19799;DHT22;10059;59.850;10.454;2022-10-16T04:24:17;5.20;99.90
19799;DHT22;10059;59.850;10.454;2022-10-16T04:26:44;5.30;99.90
19799;DHT22;10059;59.850;10.454;2022-10-16T04:29:11;5.20;99.90
19799;DHT22;10059;59.850;10.454;2022-10-16T04:31:38;5.10;99.90
19799;DHT22;10059;59.850;10.454;2022-10-16T04:34:06;5.30;99.90
19799;DHT22;10059;59.850;10.454;2022-10-16T04:36:36;5.30;99.90
19799;DHT22;10059;59.850;10.454;2022-10-16T04:39:03;5.10;99.90
19799;DHT22;10059;59.850;10.454;2022-10-16T04:41:30;4.90;99.90
19799;DHT22;10059;59.850;10.454;2022-10-16T04:43:57;4.80;99.90
19799;DHT22;10059;59.850;10.454;2022-10-16T04:46:24;4.80;99.90
19799;DHT22;10059;59.850;10.454;2022-10-16T04:48:51;4.60;99.90
19799;DHT22;10059;59.850;10.454;2022-10-16T04:51:19;4.50;99.90
19799;DHT22;10059;59.850;10.454;2022-10-16T04:53:46;4.60;99.90
19799;DHT22;10059;59.850;10.454;2022-10-16T04:56:13;4.60;99.90
19799;DHT22;10059;59.850;10.454;2022-10-16T04:58:40;4.60;99.90
19799;DHT22;10059;59.850;10.454;2022-10-16T05:01:07;4.60;99.90
19799;DHT22;10059;59.850;10.454;2022-10-16T05:03:34;4.50;99.90
19799;DHT22;10059;59.850;10.454;2022-10-16T05:06:02;4.50;99.90
19799;DHT22;10059;59.850;10.454;2022-10-16T05:08:31;4.40;99.90
19799;DHT22;10059;59.850;10.454;2022-10-16T05:10:58;4.40;99.90
19799;DHT22;10059;59.850;10.454;2022-10-16T05:13:25;4.50;99.90
19799;DHT22;10059;59.850;10.454;2022-10-16T05:15:52;4.50;99.90
19799;DHT22;10059;59.850;10.454;2022-10-16T05:18:19;4.40;99.90
19799;DHT22;10059;59.850;10.454;2022-10-16T05:20:46;4.40;99.90
19799;DHT22;10059;59.850;10.454;2022-10-16T05:23:13;4.30;99.90
19799;DHT22;10059;59.850;10.454;2022-10-16T05:25:41;4.30;99.90
19799;DHT22;10059;59.850;10.454;2022-10-16T05:28:08;4.50;99.90
19799;DHT22;10059;59.850;10.454;2022-10-16T05:30:37;4.50;99.90
19799;DHT22;10059;59.850;10.454;2022-10-16T05:33:04;4.50;99.90
19799;DHT22;10059;59.850;10.454;2022-10-16T05:35:31;4.50;99.90
19799;DHT22;10059;59.850;10.454;2022-10-16T05:37:57;4.50;99.90
19799;DHT22;10059;59.850;10.454;2022-10-16T05:40:25;4.50;99.90
19799;DHT22;10059;59.850;10.454;2022-10-16T05:42:56;4.50;99.90
19799;DHT22;10059;59.850;10.454;2022-10-16T05:45:22;4.70;99.90
19799;DHT22;10059;59.850;10.454;2022-10-16T05:47:49;4.50;99.90
19799;DHT22;10059;59.850;10.454;2022-10-16T05:50:17;4.60;99.90
19799;DHT22;10059;59.850;10.454;2022-10-16T05:52:43;4.60;99.90
19799;DHT22;10059;59.850;10.454;2022-10-16T05:55:10;4.60;99.90
19799;DHT22;10059;59.850;10.454;2022-10-16T05:57:37;4.60;99.90
19799;DHT22;10059;59.850;10.454;2022-10-16T06:00:07;4.90;99.90
19799;DHT22;10059;59.850;10.454;2022-10-16T06:02:35;5.00;99.90
19799;DHT22;10059;59.850;10.454;2022-10-16T06:05:02;4.90;99.90
19799;DHT22;10059;59.850;10.454;2022-10-16T06:07:29;4.90;99.90
19799;DHT22;10059;59.850;10.454;2022-10-16T06:09:56;5.00;99.90
19799;DHT22;10059;59.850;10.454;2022-10-16T06:12:23;5.00;99.90
19799;DHT22;10059;59.850;10.454;2022-10-16T06:14:50;5.20;99.90
19799;DHT22;10059;59.850;10.454;2022-10-16T06:17:18;5.20;99.90
19799;DHT22;10059;59.850;10.454;2022-10-16T06:19:45;5.20;99.90
19799;DHT22;10059;59.850;10.454;2022-10-16T06:22:12;5.20;99.90
19799;DHT22;10059;59.850;10.454;2022-10-16T06:24:39;5.30;99.90
19799;DHT22;10059;59.850;10.454;2022-10-16T06:27:06;5.30;99.90
19799;DHT22;10059;59.850;10.454;2022-10-16T06:29:33;5.30;99.90
19799;DHT22;10059;59.850;10.454;2022-10-16T06:32:00;5.40;99.90
19799;DHT22;10059;59.850;10.454;2022-10-16T06:34:28;5.60;99.90
19799;DHT22;10059;59.850;10.454;2022-10-16T06:36:55;5.70;99.90
19799;DHT22;10059;59.850;10.454;2022-10-16T06:39:22;5.70;99.90
19799;DHT22;10059;59.850;10.454;2022-10-16T06:41:49;5.70;99.90
19799;DHT22;10059;59.850;10.454;2022-10-16T06:44:16;5.70;99.90
19799;DHT22;10059;59.850;10.454;2022-10-16T06:46:43;5.80;99.90
19799;DHT22;10059;59.850;10.454;2022-10-16T06:49:10;5.80;99.90
19799;DHT22;10059;59.850;10.454;2022-10-16T06:51:38;5.80;99.90
19799;DHT22;10059;59.850;10.454;2022-10-16T06:54:06;5.90;99.90
19799;DHT22;10059;59.850;10.454;2022-10-16T06:56:34;6.00;99.90
19799;DHT22;10059;59.850;10.454;2022-10-16T06:59:01;6.10;99.90
19799;DHT22;10059;59.850;10.454;2022-10-16T07:01:29;6.30;99.90
19799;DHT22;10059;59.850;10.454;2022-10-16T07:03:56;6.40;99.90
19799;DHT22;10059;59.850;10.454;2022-10-16T07:06:24;6.50;99.90
19799;DHT22;10059;59.850;10.454;2022-10-16T07:08:53;6.60;99.90
19799;DHT22;10059;59.850;10.454;2022-10-16T07:11:23;6.70;99.90
19799;DHT22;10059;59.850;10.454;2022-10-16T07:13:51;6.70;99.90
19799;DHT22;10059;59.850;10.454;2022-10-16T07:16:20;6.80;99.90
19799;DHT22;10059;59.850;10.454;2022-10-16T07:18:47;6.90;99.90
19799;DHT22;10059;59.850;10.454;2022-10-16T07:21:17;6.90;99.90
19799;DHT22;10059;59.850;10.454;2022-10-16T07:23:45;7.00;99.90
19799;DHT22;10059;59.850;10.454;2022-10-16T07:26:13;7.00;99.90
19799;DHT22;10059;59.850;10.454;2022-10-16T07:28:42;7.10;99.90
19799;DHT22;10059;59.850;10.454;2022-10-16T07:31:11;7.10;99.90
19799;DHT22;10059;59.850;10.454;2022-10-16T07:33:39;7.10;99.90
19799;DHT22;10059;59.850;10.454;2022-10-16T07:36:07;7.20;99.90
19799;DHT22;10059;59.850;10.454;2022-10-16T07:38:34;7.10;99.90
19799;DHT22;10059;59.850;10.454;2022-10-16T07:41:03;7.30;99.90
19799;DHT22;10059;59.850;10.454;2022-10-16T07:43:32;7.30;99.90
19799;DHT22;10059;59.850;10.454;2022-10-16T07:46:00;7.30;99.90
19799;DHT22;10059;59.850;10.454;2022-10-16T07:48:28;7.30;99.90
19799;DHT22;10059;59.850;10.454;2022-10-16T07:50:57;7.30;99.90
19799;DHT22;10059;59.850;10.454;2022-10-16T07:53:24;7.40;99.90
19799;DHT22;10059;59.850;10.454;2022-10-16T07:55:51;7.40;99.90
19799;DHT22;10059;59.850;10.454;2022-10-16T07:58:18;7.40;99.90
19799;DHT22;10059;59.850;10.454;2022-10-16T08:00:46;7.30;99.90
19799;DHT22;10059;59.850;10.454;2022-10-16T08:03:13;7.40;99.90
19799;DHT22;10059;59.850;10.454;2022-10-16T08:05:40;7.40;99.90
19799;DHT22;10059;59.850;10.454;2022-10-16T08:08:12;7.40;99.90
19799;DHT22;10059;59.850;10.454;2022-10-16T08:10:39;7.30;99.90
19799;DHT22;10059;59.850;10.454;2022-10-16T08:13:07;7.40;99.90
19799;DHT22;10059;59.850;10.454;2022-10-16T08:15:34;7.40;99.90
19799;DHT22;10059;59.850;10.454;2022-10-16T08:18:04;7.30;99.90
19799;DHT22;10059;59.850;10.454;2022-10-16T08:20:32;7.30;99.90
19799;DHT22;10059;59.850;10.454;2022-10-16T08:22:59;7.30;99.90
19799;DHT22;10059;59.850;10.454;2022-10-16T08:25:27;7.30;99.90
19799;DHT22;10059;59.850;10.454;2022-10-16T08:27:54;7.40;99.90
19799;DHT22;10059;59.850;10.454;2022-10-16T08:30:22;7.50;99.90
19799;DHT22;10059;59.850;10.454;2022-10-16T08:32:50;7.40;99.90
19799;DHT22;10059;59.850;10.454;2022-10-16T08:35:18;7.30;99.90
19799;DHT22;10059;59.850;10.454;2022-10-16T08:37:45;7.40;99.90
19799;DHT22;10059;59.850;10.454;2022-10-16T08:40:18;7.30;99.90
19799;DHT22;10059;59.850;10.454;2022-10-16T08:43:15;7.50;99.90
19799;DHT22;10059;59.850;10.454;2022-10-16T08:45:58;7.50;99.90
19799;DHT22;10059;59.850;10.454;2022-10-16T08:48:34;7.40;99.90
19799;DHT22;10059;59.850;10.454;2022-10-16T08:51:04;7.30;99.90
19799;DHT22;10059;59.850;10.454;2022-10-16T08:53:40;7.50;99.90
19799;DHT22;10059;59.850;10.454;2022-10-16T08:56:09;7.50;99.90
19799;DHT22;10059;59.850;10.454;2022-10-16T08:58:36;7.40;99.90
19799;DHT22;10059;59.850;10.454;2022-10-16T09:01:09;7.30;99.90
19799;DHT22;10059;59.850;10.454;2022-10-16T09:06:32;7.60;99.90
19799;DHT22;10059;59.850;10.454;2022-10-16T09:09:31;7.60;99.90
19799;DHT22;10059;59.850;10.454;2022-10-16T09:12:05;7.60;99.90
19799;DHT22;10059;59.850;10.454;2022-10-16T09:14:44;7.70;99.90
19799;DHT22;10059;59.850;10.454;2022-10-16T09:17:28;7.90;99.90
19799;DHT22;10059;59.850;10.454;2022-10-16T09:20:10;7.90;99.90
19799;DHT22;10059;59.850;10.454;2022-10-16T09:22:40;7.80;99.90
19799;DHT22;10059;59.850;10.454;2022-10-16T09:25:12;7.80;99.90
19799;DHT22;10059;59.850;10.454;2022-10-16T09:27:39;8.00;99.90
19799;DHT22;10059;59.850;10.454;2022-10-16T09:30:12;7.80;99.90
19799;DHT22;10059;59.850;10.454;2022-10-16T09:32:40;8.00;99.90
19799;DHT22;10059;59.850;10.454;2022-10-16T09:35:13;7.90;99.90
19799;DHT22;10059;59.850;10.454;2022-10-16T09:37:42;8.00;99.90
19799;DHT22;10059;59.850;10.454;2022-10-16T09:40:23;8.20;99.90
19799;DHT22;10059;59.850;10.454;2022-10-16T09:42:52;8.10;99.90
19799;DHT22;10059;59.850;10.454;2022-10-16T09:45:22;8.00;99.90
19799;DHT22;10059;59.850;10.454;2022-10-16T09:47:50;8.10;99.90
19799;DHT22;10059;59.850;10.454;2022-10-16T09:50:23;8.10;99.90
19799;DHT22;10059;59.850;10.454;2022-10-16T09:53:03;8.10;99.90
19799;DHT22;10059;59.850;10.454;2022-10-16T09:55:30;8.10;99.90
19799;DHT22;10059;59.850;10.454;2022-10-16T09:58:00;8.10;99.90
19799;DHT22;10059;59.850;10.454;2022-10-16T10:00:27;8.30;99.90
19799;DHT22;10059;59.850;10.454;2022-10-16T10:02:55;8.20;99.90
19799;DHT22;10059;59.850;10.454;2022-10-16T10:05:24;8.40;99.90
19799;DHT22;10059;59.850;10.454;2022-10-16T10:07:57;8.50;99.90
19799;DHT22;10059;59.850;10.454;2022-10-16T10:10:26;8.60;99.90
19799;DHT22;10059;59.850;10.454;2022-10-16T10:12:54;8.60;99.90
19799;DHT22;10059;59.850;10.454;2022-10-16T10:15:22;8.60;99.90
19799;DHT22;10059;59.850;10.454;2022-10-16T10:17:52;8.60;99.90
19799;DHT22;10059;59.850;10.454;2022-10-16T10:20:25;8.80;99.90
19799;DHT22;10059;59.850;10.454;2022-10-16T10:22:53;8.90;99.90
19799;DHT22;10059;59.850;10.454;2022-10-16T10:25:39;9.00;99.90
19799;DHT22;10059;59.850;10.454;2022-10-16T10:28:42;9.30;99.90
19799;DHT22;10059;59.850;10.454;2022-10-16T10:31:17;9.40;99.90
19799;DHT22;10059;59.850;10.454;2022-10-16T10:33:50;9.60;99.90
19799;DHT22;10059;59.850;10.454;2022-10-16T10:36:29;9.50;99.90
19799;DHT22;10059;59.850;10.454;2022-10-16T10:38:59;9.60;99.90
19799;DHT22;10059;59.850;10.454;2022-10-16T10:42:03;9.80;99.90
19799;DHT22;10059;59.850;10.454;2022-10-16T10:44:52;9.70;99.90
19799;DHT22;10059;59.850;10.454;2022-10-16T10:47:30;9.60;99.90
19799;DHT22;10059;59.850;10.454;2022-10-16T10:50:07;9.50;99.90
19799;DHT22;10059;59.850;10.454;2022-10-16T10:52:47;9.60;99.90
19799;DHT22;10059;59.850;10.454;2022-10-16T10:55:23;9.60;99.90
19799;DHT22;10059;59.850;10.454;2022-10-16T11:00:49;9.50;99.90
19799;DHT22;10059;59.850;10.454;2022-10-16T11:03:29;9.30;99.90
19799;DHT22;10059;59.850;10.454;2022-10-16T11:06:05;9.30;99.90
19799;DHT22;10059;59.850;10.454;2022-10-16T11:08:36;9.10;99.90
19799;DHT22;10059;59.850;10.454;2022-10-16T11:11:08;9.10;99.90
19799;DHT22;10059;59.850;10.454;2022-10-16T11:13:44;8.90;99.90
19799;DHT22;10059;59.850;10.454;2022-10-16T11:16:16;8.50;99.90
19799;DHT22;10059;59.850;10.454;2022-10-16T11:18:52;8.50;99.90
19799;DHT22;10059;59.850;10.454;2022-10-16T11:21:22;8.70;99.90
19799;DHT22;10059;59.850;10.454;2022-10-16T11:23:55;8.60;99.90
19799;DHT22;10059;59.850;10.454;2022-10-16T11:26:32;8.80;99.90
19799;DHT22;10059;59.850;10.454;2022-10-16T11:29:03;8.90;99.90
19799;DHT22;10059;59.850;10.454;2022-10-16T11:31:36;9.00;99.90
19799;DHT22;10059;59.850;10.454;2022-10-16T11:34:08;9.00;99.90
19799;DHT22;10059;59.850;10.454;2022-10-16T11:36:45;8.90;99.90
19799;DHT22;10059;59.850;10.454;2022-10-16T11:39:20;9.10;99.90
19799;DHT22;10059;59.850;10.454;2022-10-16T11:41:50;9.10;99.90
19799;DHT22;10059;59.850;10.454;2022-10-16T11:44:33;9.10;99.90
19799;DHT22;10059;59.850;10.454;2022-10-16T11:47:09;9.00;99.90
19799;DHT22;10059;59.850;10.454;2022-10-16T11:49:40;9.00;99.90
19799;DHT22;10059;59.850;10.454;2022-10-16T11:52:13;8.90;99.90
19799;DHT22;10059;59.850;10.454;2022-10-16T11:54:47;8.90;99.90
19799;DHT22;10059;59.850;10.454;2022-10-16T11:57:19;8.80;99.90
19799;DHT22;10059;59.850;10.454;2022-10-16T11:59:51;8.90;99.90
19799;DHT22;10059;59.850;10.454;2022-10-16T12:02:40;8.90;99.90
19799;DHT22;10059;59.850;10.454;2022-10-16T12:05:20;9.00;99.90
19799;DHT22;10059;59.850;10.454;2022-10-16T12:07:55;8.90;99.90
19799;DHT22;10059;59.850;10.454;2022-10-16T12:10:25;8.90;99.90
19799;DHT22;10059;59.850;10.454;2022-10-16T12:12:52;8.90;99.90
19799;DHT22;10059;59.850;10.454;2022-10-16T12:15:23;8.80;99.90
19799;DHT22;10059;59.850;10.454;2022-10-16T12:17:51;8.90;99.90
19799;DHT22;10059;59.850;10.454;2022-10-16T12:20:22;8.90;99.90
19799;DHT22;10059;59.850;10.454;2022-10-16T12:22:52;8.90;99.90
19799;DHT22;10059;59.850;10.454;2022-10-16T12:25:23;8.90;99.90
19799;DHT22;10059;59.850;10.454;2022-10-16T12:27:55;8.90;99.90
19799;DHT22;10059;59.850;10.454;2022-10-16T12:30:25;8.90;99.90
19799;DHT22;10059;59.850;10.454;2022-10-16T12:32:54;9.00;99.90
19799;DHT22;10059;59.850;10.454;2022-10-16T12:35:24;8.90;99.90
19799;DHT22;10059;59.850;10.454;2022-10-16T12:37:52;9.00;99.90
19799;DHT22;10059;59.850;10.454;2022-10-16T12:40:27;8.90;99.90
19799;DHT22;10059;59.850;10.454;2022-10-16T12:42:55;9.00;99.90
19799;DHT22;10059;59.850;10.454;2022-10-16T12:45:27;9.00;99.90
19799;DHT22;10059;59.850;10.454;2022-10-16T12:47:55;9.10;99.90
19799;DHT22;10059;59.850;10.454;2022-10-16T12:50:33;9.10;99.90
19799;DHT22;10059;59.850;10.454;2022-10-16T12:53:02;9.10;99.90
19799;DHT22;10059;59.850;10.454;2022-10-16T12:55:41;9.20;99.90
19799;DHT22;10059;59.850;10.454;2022-10-16T12:58:20;9.30;99.90
19799;DHT22;10059;59.850;10.454;2022-10-16T13:00:56;9.30;99.90
19799;DHT22;10059;59.850;10.454;2022-10-16T13:03:47;9.20;99.90
19799;DHT22;10059;59.850;10.454;2022-10-16T13:06:30;9.40;99.90
19799;DHT22;10059;59.850;10.454;2022-10-16T13:09:19;9.50;99.90
19799;DHT22;10059;59.850;10.454;2022-10-16T13:12:00;9.60;99.90
19799;DHT22;10059;59.850;10.454;2022-10-16T13:14:49;9.60;99.90
19799;DHT22;10059;59.850;10.454;2022-10-16T13:17:26;9.60;99.90
19799;DHT22;10059;59.850;10.454;2022-10-16T13:20:00;9.70;99.90
19799;DHT22;10059;59.850;10.454;2022-10-16T13:22:33;9.60;99.90
19799;DHT22;10059;59.850;10.454;2022-10-16T13:25:14;9.70;99.90
19799;DHT22;10059;59.850;10.454;2022-10-16T13:27:50;9.70;99.90
19799;DHT22;10059;59.850;10.454;2022-10-16T13:30:20;9.70;99.90
19799;DHT22;10059;59.850;10.454;2022-10-16T13:32:56;9.80;99.90
19799;DHT22;10059;59.850;10.454;2022-10-16T13:35:27;9.90;99.90
19799;DHT22;10059;59.850;10.454;2022-10-16T13:38:04;9.90;99.90
19799;DHT22;10059;59.850;10.454;2022-10-16T13:40:31;9.80;99.90
19799;DHT22;10059;59.850;10.454;2022-10-16T13:43:00;9.80;99.90
19799;DHT22;10059;59.850;10.454;2022-10-16T13:45:27;9.90;99.90
19799;DHT22;10059;59.850;10.454;2022-10-16T13:48:03;10.00;99.90
19799;DHT22;10059;59.850;10.454;2022-10-16T13:50:30;10.10;99.90
19799;DHT22;10059;59.850;10.454;2022-10-16T13:53:04;10.10;99.90
19799;DHT22;10059;59.850;10.454;2022-10-16T13:55:31;10.10;99.90
19799;DHT22;10059;59.850;10.454;2022-10-16T13:58:05;9.90;99.90
19799;DHT22;10059;59.850;10.454;2022-10-16T14:00:33;9.90;99.90
19799;DHT22;10059;59.850;10.454;2022-10-16T14:03:04;10.00;99.90
19799;DHT22;10059;59.850;10.454;2022-10-16T14:05:31;10.10;99.90
19799;DHT22;10059;59.850;10.454;2022-10-16T14:07:58;10.10;99.90
19799;DHT22;10059;59.850;10.454;2022-10-16T14:10:27;10.10;99.90
19799;DHT22;10059;59.850;10.454;2022-10-16T14:12:57;10.00;99.90
19799;DHT22;10059;59.850;10.454;2022-10-16T14:15:25;10.00;99.90
19799;DHT22;10059;59.850;10.454;2022-10-16T14:17:53;10.20;99.90
19799;DHT22;10059;59.850;10.454;2022-10-16T14:20:25;10.20;99.90
19799;DHT22;10059;59.850;10.454;2022-10-16T14:22:59;10.10;99.90
19799;DHT22;10059;59.850;10.454;2022-10-16T14:25:28;10.10;99.90
19799;DHT22;10059;59.850;10.454;2022-10-16T14:28:03;10.20;99.90
19799;DHT22;10059;59.850;10.454;2022-10-16T14:30:32;9.90;99.90
19799;DHT22;10059;59.850;10.454;2022-10-16T14:33:01;9.90;99.90
19799;DHT22;10059;59.850;10.454;2022-10-16T14:35:31;10.00;99.90
19799;DHT22;10059;59.850;10.454;2022-10-16T14:38:00;10.00;99.90
19799;DHT22;10059;59.850;10.454;2022-10-16T14:40:29;10.20;99.90
19799;DHT22;10059;59.850;10.454;2022-10-16T14:42:57;10.00;99.90
19799;DHT22;10059;59.850;10.454;2022-10-16T14:45:28;10.00;99.90
19799;DHT22;10059;59.850;10.454;2022-10-16T14:47:59;10.10;99.90
19799;DHT22;10059;59.850;10.454;2022-10-16T14:50:27;10.10;99.90
19799;DHT22;10059;59.850;10.454;2022-10-16T14:52:55;10.10;99.90
19799;DHT22;10059;59.850;10.454;2022-10-16T14:55:23;10.20;99.90
19799;DHT22;10059;59.850;10.454;2022-10-16T14:57:50;10.10;99.90
19799;DHT22;10059;59.850;10.454;2022-10-16T15:00:19;10.20;99.90
19799;DHT22;10059;59.850;10.454;2022-10-16T15:02:47;10.20;99.90
19799;DHT22;10059;59.850;10.454;2022-10-16T15:05:17;10.10;99.90
19799;DHT22;10059;59.850;10.454;2022-10-16T15:07:45;10.10;99.90
19799;DHT22;10059;59.850;10.454;2022-10-16T15:10:14;10.00;99.90
19799;DHT22;10059;59.850;10.454;2022-10-16T15:12:41;9.90;99.90
19799;DHT22;10059;59.850;10.454;2022-10-16T15:15:42;9.90;99.90
19799;DHT22;10059;59.850;10.454;2022-10-16T15:18:09;9.80;99.90
19799;DHT22;10059;59.850;10.454;2022-10-16T15:20:38;9.70;99.90
19799;DHT22;10059;59.850;10.454;2022-10-16T15:23:10;9.70;99.90
19799;DHT22;10059;59.850;10.454;2022-10-16T15:25:42;9.70;99.90
19799;DHT22;10059;59.850;10.454;2022-10-16T15:28:10;9.80;99.90
19799;DHT22;10059;59.850;10.454;2022-10-16T15:30:37;9.70;99.90
19799;DHT22;10059;59.850;10.454;2022-10-16T15:33:10;9.70;99.90
19799;DHT22;10059;59.850;10.454;2022-10-16T15:35:37;9.70;99.90
19799;DHT22;10059;59.850;10.454;2022-10-16T15:38:04;9.60;99.90
19799;DHT22;10059;59.850;10.454;2022-10-16T15:40:31;9.60;99.90
19799;DHT22;10059;59.850;10.454;2022-10-16T15:42:59;9.60;99.90
19799;DHT22;10059;59.850;10.454;2022-10-16T15:45:26;9.70;99.90
19799;DHT22;10059;59.850;10.454;2022-10-16T15:47:53;9.60;99.90
19799;DHT22;10059;59.850;10.454;2022-10-16T15:50:20;9.70;99.90
19799;DHT22;10059;59.850;10.454;2022-10-16T15:52:47;9.70;99.90
19799;DHT22;10059;59.850;10.454;2022-10-16T15:55:14;9.60;99.90